sensor_id;sensor_type;location;lat;lon;timestamp;temperature;humidity
4701;DHT22;8724;51.272;6.554;2023-09-19T00:00:56;20.50;99.90
4701;DHT22;8724;51.272;6.554;2023-09-19T00:03:25;20.50;99.90
4701;DHT22;8724;51.272;6.554;2023-09-19T00:05:58;20.60;99.90
4701;DHT22;8724;51.272;6.554;2023-09-19T00:08:26;20.40;99.90
4701;DHT22;8724;51.272;6.554;2023-09-19T00:10:56;20.50;99.90
4701;DHT22;8724;51.272;6.554;2023-09-19T00:13:29;20.40;99.90
4701;DHT22;8724;51.272;6.554;2023-09-19T00:15:58;20.40;99.90
4701;DHT22;8724;51.272;6.554;2023-09-19T00:18:27;20.40;99.90
4701;DHT22;8724;51.272;6.554;2023-09-19T00:20:59;20.40;99.90
4701;DHT22;8724;51.272;6.554;2023-09-19T00:23:27;20.40;99.90
4701;DHT22;8724;51.272;6.554;2023-09-19T00:26:00;20.40;99.90
4701;DHT22;8724;51.272;6.554;2023-09-19T00:28:28;20.40;99.90
4701;DHT22;8724;51.272;6.554;2023-09-19T00:30:56;20.30;99.90
4701;DHT22;8724;51.272;6.554;2023-09-19T00:33:28;20.30;99.90
4701;DHT22;8724;51.272;6.554;2023-09-19T00:35:57;20.30;99.90
4701;DHT22;8724;51.272;6.554;2023-09-19T00:38:25;20.30;99.90
4701;DHT22;8724;51.272;6.554;2023-09-19T00:40:54;20.30;99.90
4701;DHT22;8724;51.272;6.554;2023-09-19T00:43:27;20.30;99.90
4701;DHT22;8724;51.272;6.554;2023-09-19T00:45:56;20.20;99.90
4701;DHT22;8724;51.272;6.554;2023-09-19T00:48:27;20.20;99.90
4701;DHT22;8724;51.272;6.554;2023-09-19T00:50:57;20.20;99.90
4701;DHT22;8724;51.272;6.554;2023-09-19T00:53:26;20.20;99.90
4701;DHT22;8724;51.272;6.554;2023-09-19T00:55:55;20.20;99.90
4701;DHT22;8724;51.272;6.554;2023-09-19T00:58:24;20.20;99.90
4701;DHT22;8724;51.272;6.554;2023-09-19T01:00:53;20.10;99.90
4701;DHT22;8724;51.272;6.554;2023-09-19T01:03:22;20.10;99.90
4701;DHT22;8724;51.272;6.554;2023-09-19T01:05:51;20.10;99.90
4701;DHT22;8724;51.272;6.554;2023-09-19T01:08:19;20.10;99.90
4701;DHT22;8724;51.272;6.554;2023-09-19T01:10:52;20.40;99.90
4701;DHT22;8724;51.272;6.554;2023-09-19T01:13:30;20.10;99.90
4701;DHT22;8724;51.272;6.554;2023-09-19T01:16:08;20.10;99.90
4701;DHT22;8724;51.272;6.554;2023-09-19T01:18:45;20.30;99.90
4701;DHT22;8724;51.272;6.554;2023-09-19T01:21:22;20.00;99.90
4701;DHT22;8724;51.272;6.554;2023-09-19T01:24:11;20.00;99.90
4701;DHT22;8724;51.272;6.554;2023-09-19T01:27:02;20.00;99.90
4701;DHT22;8724;51.272;6.554;2023-09-19T01:29:38;20.00;99.90
4701;DHT22;8724;51.272;6.554;2023-09-19T01:32:08;20.00;99.90
4701;DHT22;8724;51.272;6.554;2023-09-19T01:34:44;20.00;99.90
4701;DHT22;8724;51.272;6.554;2023-09-19T01:37:14;20.00;99.90
4701;DHT22;8724;51.272;6.554;2023-09-19T01:39:47;20.00;99.90
4701;DHT22;8724;51.272;6.554;2023-09-19T01:42:23;19.90;99.90
4701;DHT22;8724;51.272;6.554;2023-09-19T01:44:57;19.90;99.90
4701;DHT22;8724;51.272;6.554;2023-09-19T01:47:32;19.90;99.90
4701;DHT22;8724;51.272;6.554;2023-09-19T01:50:11;19.90;99.90
4701;DHT22;8724;51.272;6.554;2023-09-19T01:52:47;19.80;99.90
4701;DHT22;8724;51.272;6.554;2023-09-19T01:55:17;19.80;99.90
4701;DHT22;8724;51.272;6.554;2023-09-19T01:57:51;19.80;99.90
4701;DHT22;8724;51.272;6.554;2023-09-19T02:00:23;19.80;99.90
4701;DHT22;8724;51.272;6.554;2023-09-19T02:02:54;19.70;99.90
4701;DHT22;8724;51.272;6.554;2023-09-19T02:05:26;19.80;99.90
4701;DHT22;8724;51.272;6.554;2023-09-19T02:07:55;19.70;99.90
4701;DHT22;8724;51.272;6.554;2023-09-19T02:10:24;19.70;99.90
4701;DHT22;8724;51.272;6.554;2023-09-19T02:12:52;19.70;99.90
4701;DHT22;8724;51.272;6.554;2023-09-19T02:15:20;19.70;99.90
4701;DHT22;8724;51.272;6.554;2023-09-19T02:17:49;19.70;99.90
4701;DHT22;8724;51.272;6.554;2023-09-19T02:20:18;19.70;99.90
4701;DHT22;8724;51.272;6.554;2023-09-19T02:22:47;19.70;99.90
4701;DHT22;8724;51.272;6.554;2023-09-19T02:25:17;19.70;99.90
4701;DHT22;8724;51.272;6.554;2023-09-19T02:27:46;19.60;99.90
4701;DHT22;8724;51.272;6.554;2023-09-19T02:30:15;19.60;99.90
4701;DHT22;8724;51.272;6.554;2023-09-19T02:32:48;19.60;99.90
4701;DHT22;8724;51.272;6.554;2023-09-19T02:35:18;19.60;99.90
4701;DHT22;8724;51.272;6.554;2023-09-19T02:37:48;19.60;99.90
4701;DHT22;8724;51.272;6.554;2023-09-19T02:40:16;19.60;99.90
4701;DHT22;8724;51.272;6.554;2023-09-19T02:42:47;19.50;99.90
4701;DHT22;8724;51.272;6.554;2023-09-19T02:45:17;19.50;99.90
4701;DHT22;8724;51.272;6.554;2023-09-19T02:47:48;19.50;99.90
4701;DHT22;8724;51.272;6.554;2023-09-19T02:50:18;19.50;99.90
4701;DHT22;8724;51.272;6.554;2023-09-19T02:52:47;19.50;99.90
4701;DHT22;8724;51.272;6.554;2023-09-19T02:55:17;19.50;99.90
4701;DHT22;8724;51.272;6.554;2023-09-19T02:57:47;19.50;99.90
4701;DHT22;8724;51.272;6.554;2023-09-19T03:00:16;19.50;99.90
4701;DHT22;8724;51.272;6.554;2023-09-19T03:02:49;19.50;99.90
4701;DHT22;8724;51.272;6.554;2023-09-19T03:05:19;19.50;99.90
4701;DHT22;8724;51.272;6.554;2023-09-19T03:07:49;19.50;99.90
4701;DHT22;8724;51.272;6.554;2023-09-19T03:10:20;19.50;99.90
4701;DHT22;8724;51.272;6.554;2023-09-19T03:12:49;19.50;99.90
4701;DHT22;8724;51.272;6.554;2023-09-19T03:15:18;19.50;99.90
4701;DHT22;8724;51.272;6.554;2023-09-19T03:17:50;19.40;99.90
4701;DHT22;8724;51.272;6.554;2023-09-19T03:20:23;19.40;99.90
4701;DHT22;8724;51.272;6.554;2023-09-19T03:22:54;19.40;99.90
4701;DHT22;8724;51.272;6.554;2023-09-19T03:25:24;19.40;99.90
4701;DHT22;8724;51.272;6.554;2023-09-19T03:27:53;19.40;99.90
4701;DHT22;8724;51.272;6.554;2023-09-19T03:30:23;19.40;99.90
4701;DHT22;8724;51.272;6.554;2023-09-19T03:32:51;19.40;99.90
4701;DHT22;8724;51.272;6.554;2023-09-19T03:35:20;19.40;99.90
4701;DHT22;8724;51.272;6.554;2023-09-19T03:37:49;19.40;99.90
4701;DHT22;8724;51.272;6.554;2023-09-19T03:40:19;19.40;99.90
4701;DHT22;8724;51.272;6.554;2023-09-19T03:42:49;19.40;99.90
4701;DHT22;8724;51.272;6.554;2023-09-19T03:45:17;19.40;99.90
4701;DHT22;8724;51.272;6.554;2023-09-19T03:47:52;19.40;99.90
4701;DHT22;8724;51.272;6.554;2023-09-19T03:50:22;19.40;99.90
4701;DHT22;8724;51.272;6.554;2023-09-19T03:52:57;19.40;99.90
4701;DHT22;8724;51.272;6.554;2023-09-19T03:55:25;19.40;99.90
4701;DHT22;8724;51.272;6.554;2023-09-19T03:57:53;19.40;99.90
4701;DHT22;8724;51.272;6.554;2023-09-19T04:00:22;19.40;99.90
4701;DHT22;8724;51.272;6.554;2023-09-19T04:02:53;19.40;99.90
4701;DHT22;8724;51.272;6.554;2023-09-19T04:05:23;19.40;99.90
4701;DHT22;8724;51.272;6.554;2023-09-19T04:07:51;19.30;99.90
4701;DHT22;8724;51.272;6.554;2023-09-19T04:10:21;19.30;99.90
4701;DHT22;8724;51.272;6.554;2023-09-19T04:12:51;19.30;99.90
4701;DHT22;8724;51.272;6.554;2023-09-19T04:15:20;19.30;99.90
4701;DHT22;8724;51.272;6.554;2023-09-19T04:17:52;19.30;99.90
4701;DHT22;8724;51.272;6.554;2023-09-19T04:20:20;19.40;99.90
4701;DHT22;8724;51.272;6.554;2023-09-19T04:22:50;19.20;99.90
4701;DHT22;8724;51.272;6.554;2023-09-19T04:25:18;19.30;99.90
4701;DHT22;8724;51.272;6.554;2023-09-19T04:27:48;19.20;99.90
4701;DHT22;8724;51.272;6.554;2023-09-19T04:30:18;19.20;99.90
4701;DHT22;8724;51.272;6.554;2023-09-19T04:32:48;19.30;99.90
4701;DHT22;8724;51.272;6.554;2023-09-19T04:35:18;19.30;99.90
4701;DHT22;8724;51.272;6.554;2023-09-19T04:37:46;19.20;99.90
4701;DHT22;8724;51.272;6.554;2023-09-19T04:40:15;19.20;99.90
4701;DHT22;8724;51.272;6.554;2023-09-19T04:42:45;19.20;99.90
4701;DHT22;8724;51.272;6.554;2023-09-19T04:45:16;19.20;99.90
4701;DHT22;8724;51.272;6.554;2023-09-19T04:47:46;19.20;99.90
4701;DHT22;8724;51.272;6.554;2023-09-19T04:50:14;19.10;99.90
4701;DHT22;8724;51.272;6.554;2023-09-19T04:52:45;19.10;99.90
4701;DHT22;8724;51.272;6.554;2023-09-19T04:55:18;19.10;99.90
4701;DHT22;8724;51.272;6.554;2023-09-19T04:57:47;19.10;99.90
4701;DHT22;8724;51.272;6.554;2023-09-19T05:00:18;19.10;99.90
4701;DHT22;8724;51.272;6.554;2023-09-19T05:02:51;19.10;99.90
4701;DHT22;8724;51.272;6.554;2023-09-19T05:05:19;19.10;99.90
4701;DHT22;8724;51.272;6.554;2023-09-19T05:07:47;19.10;99.90
4701;DHT22;8724;51.272;6.554;2023-09-19T05:10:16;19.10;99.90
4701;DHT22;8724;51.272;6.554;2023-09-19T05:12:45;19.00;99.90
4701;DHT22;8724;51.272;6.554;2023-09-19T05:15:16;19.10;99.90
4701;DHT22;8724;51.272;6.554;2023-09-19T05:17:48;19.00;99.90
4701;DHT22;8724;51.272;6.554;2023-09-19T05:20:20;19.00;99.90
4701;DHT22;8724;51.272;6.554;2023-09-19T05:23:00;19.30;99.90
4701;DHT22;8724;51.272;6.554;2023-09-19T05:25:31;19.00;99.90
4701;DHT22;8724;51.272;6.554;2023-09-19T05:28:00;19.00;99.90
4701;DHT22;8724;51.272;6.554;2023-09-19T05:30:32;19.10;99.90
4701;DHT22;8724;51.272;6.554;2023-09-19T05:33:00;19.00;99.90
4701;DHT22;8724;51.272;6.554;2023-09-19T05:35:29;19.10;99.90
4701;DHT22;8724;51.272;6.554;2023-09-19T05:37:58;19.00;99.90
4701;DHT22;8724;51.272;6.554;2023-09-19T05:40:26;19.00;99.90
4701;DHT22;8724;51.272;6.554;2023-09-19T05:42:55;19.00;99.90
4701;DHT22;8724;51.272;6.554;2023-09-19T05:45:23;19.00;99.90
4701;DHT22;8724;51.272;6.554;2023-09-19T05:47:53;18.90;99.90
4701;DHT22;8724;51.272;6.554;2023-09-19T05:50:23;19.00;99.90
4701;DHT22;8724;51.272;6.554;2023-09-19T05:52:52;18.90;99.90
4701;DHT22;8724;51.272;6.554;2023-09-19T05:55:21;18.90;99.90
4701;DHT22;8724;51.272;6.554;2023-09-19T05:57:52;19.00;99.90
4701;DHT22;8724;51.272;6.554;2023-09-19T06:00:20;19.00;99.90
4701;DHT22;8724;51.272;6.554;2023-09-19T06:02:52;18.90;99.90
4701;DHT22;8724;51.272;6.554;2023-09-19T06:05:21;18.90;99.90
4701;DHT22;8724;51.272;6.554;2023-09-19T06:07:49;18.90;99.90
4701;DHT22;8724;51.272;6.554;2023-09-19T06:10:18;19.00;99.90
4701;DHT22;8724;51.272;6.554;2023-09-19T06:12:47;18.90;99.90
4701;DHT22;8724;51.272;6.554;2023-09-19T06:15:16;19.00;99.90
4701;DHT22;8724;51.272;6.554;2023-09-19T06:17:47;18.90;99.90
4701;DHT22;8724;51.272;6.554;2023-09-19T06:20:17;18.90;99.90
4701;DHT22;8724;51.272;6.554;2023-09-19T06:22:47;19.00;99.90
4701;DHT22;8724;51.272;6.554;2023-09-19T06:25:16;19.10;99.90
4701;DHT22;8724;51.272;6.554;2023-09-19T06:27:47;19.00;99.90
4701;DHT22;8724;51.272;6.554;2023-09-19T06:30:19;19.00;99.90
4701;DHT22;8724;51.272;6.554;2023-09-19T06:32:48;19.00;99.90
4701;DHT22;8724;51.272;6.554;2023-09-19T06:35:18;19.10;99.90
4701;DHT22;8724;51.272;6.554;2023-09-19T06:37:46;19.00;99.90
4701;DHT22;8724;51.272;6.554;2023-09-19T06:40:15;19.00;99.90
4701;DHT22;8724;51.272;6.554;2023-09-19T06:42:45;19.00;99.90
4701;DHT22;8724;51.272;6.554;2023-09-19T06:45:14;19.00;99.90
4701;DHT22;8724;51.272;6.554;2023-09-19T06:47:45;19.30;99.90
4701;DHT22;8724;51.272;6.554;2023-09-19T06:50:19;19.00;99.90
4701;DHT22;8724;51.272;6.554;2023-09-19T06:52:50;19.00;99.90
4701;DHT22;8724;51.272;6.554;2023-09-19T06:55:19;19.00;99.90
4701;DHT22;8724;51.272;6.554;2023-09-19T06:57:48;19.00;99.90
4701;DHT22;8724;51.272;6.554;2023-09-19T07:00:17;19.00;99.90
4701;DHT22;8724;51.272;6.554;2023-09-19T07:02:55;18.70;99.90
4701;DHT22;8724;51.272;6.554;2023-09-19T07:05:25;19.00;99.90
4701;DHT22;8724;51.272;6.554;2023-09-19T07:07:54;19.00;99.90
4701;DHT22;8724;51.272;6.554;2023-09-19T07:10:23;19.00;99.90
4701;DHT22;8724;51.272;6.554;2023-09-19T07:12:56;19.00;99.90
4701;DHT22;8724;51.272;6.554;2023-09-19T07:15:26;19.00;99.90
4701;DHT22;8724;51.272;6.554;2023-09-19T07:17:54;19.00;99.90
4701;DHT22;8724;51.272;6.554;2023-09-19T07:20:25;19.00;99.90
4701;DHT22;8724;51.272;6.554;2023-09-19T07:22:54;19.00;99.90
4701;DHT22;8724;51.272;6.554;2023-09-19T07:25:22;19.00;99.90
4701;DHT22;8724;51.272;6.554;2023-09-19T07:27:51;19.00;99.90
4701;DHT22;8724;51.272;6.554;2023-09-19T07:30:20;19.00;99.90
4701;DHT22;8724;51.272;6.554;2023-09-19T07:32:48;19.00;99.90
4701;DHT22;8724;51.272;6.554;2023-09-19T07:35:16;19.00;99.90
4701;DHT22;8724;51.272;6.554;2023-09-19T07:37:48;19.00;99.90
4701;DHT22;8724;51.272;6.554;2023-09-19T07:40:19;19.00;99.90
4701;DHT22;8724;51.272;6.554;2023-09-19T07:42:48;19.00;99.90
4701;DHT22;8724;51.272;6.554;2023-09-19T07:45:17;19.00;99.90
4701;DHT22;8724;51.272;6.554;2023-09-19T07:47:46;19.00;99.90
4701;DHT22;8724;51.272;6.554;2023-09-19T07:50:14;19.00;99.90
4701;DHT22;8724;51.272;6.554;2023-09-19T07:52:48;19.00;99.90
4701;DHT22;8724;51.272;6.554;2023-09-19T07:55:18;19.00;99.90
4701;DHT22;8724;51.272;6.554;2023-09-19T07:57:50;19.00;99.90
4701;DHT22;8724;51.272;6.554;2023-09-19T08:00:18;19.00;99.90
4701;DHT22;8724;51.272;6.554;2023-09-19T08:02:47;19.10;99.90
4701;DHT22;8724;51.272;6.554;2023-09-19T08:05:24;19.10;99.90
4701;DHT22;8724;51.272;6.554;2023-09-19T08:07:54;19.10;99.90
4701;DHT22;8724;51.272;6.554;2023-09-19T08:10:24;19.10;99.90
4701;DHT22;8724;51.272;6.554;2023-09-19T08:12:55;19.10;99.90
4701;DHT22;8724;51.272;6.554;2023-09-19T08:15:25;19.10;99.90
4701;DHT22;8724;51.272;6.554;2023-09-19T08:17:54;19.10;99.90
4701;DHT22;8724;51.272;6.554;2023-09-19T08:20:23;19.10;99.90
4701;DHT22;8724;51.272;6.554;2023-09-19T08:22:52;19.10;99.90
4701;DHT22;8724;51.272;6.554;2023-09-19T08:25:23;19.10;99.90
4701;DHT22;8724;51.272;6.554;2023-09-19T08:27:55;19.10;99.90
4701;DHT22;8724;51.272;6.554;2023-09-19T08:30:27;19.10;99.90
4701;DHT22;8724;51.272;6.554;2023-09-19T08:32:57;19.10;99.90
4701;DHT22;8724;51.272;6.554;2023-09-19T08:35:27;19.00;99.90
4701;DHT22;8724;51.272;6.554;2023-09-19T08:37:56;19.00;99.90
4701;DHT22;8724;51.272;6.554;2023-09-19T08:40:26;19.00;99.90
4701;DHT22;8724;51.272;6.554;2023-09-19T08:42:57;19.10;99.90
4701;DHT22;8724;51.272;6.554;2023-09-19T08:45:26;19.10;99.90
4701;DHT22;8724;51.272;6.554;2023-09-19T08:48:02;19.10;99.90
4701;DHT22;8724;51.272;6.554;2023-09-19T08:50:36;19.10;99.90
4701;DHT22;8724;51.272;6.554;2023-09-19T08:53:11;19.10;99.90
4701;DHT22;8724;51.272;6.554;2023-09-19T08:55:46;19.10;99.90
4701;DHT22;8724;51.272;6.554;2023-09-19T08:58:17;19.10;99.90
4701;DHT22;8724;51.272;6.554;2023-09-19T09:00:53;19.10;99.90
4701;DHT22;8724;51.272;6.554;2023-09-19T09:03:22;19.10;99.90
4701;DHT22;8724;51.272;6.554;2023-09-19T09:05:52;19.10;99.90
4701;DHT22;8724;51.272;6.554;2023-09-19T09:08:20;19.10;99.90
4701;DHT22;8724;51.272;6.554;2023-09-19T09:10:51;19.20;99.90
4701;DHT22;8724;51.272;6.554;2023-09-19T09:13:19;19.20;99.90
4701;DHT22;8724;51.272;6.554;2023-09-19T09:15:48;19.20;99.90
4701;DHT22;8724;51.272;6.554;2023-09-19T09:18:17;19.20;99.90
4701;DHT22;8724;51.272;6.554;2023-09-19T09:20:45;19.20;99.90
4701;DHT22;8724;51.272;6.554;2023-09-19T09:23:14;19.20;99.90
4701;DHT22;8724;51.272;6.554;2023-09-19T09:25:52;19.20;99.90
4701;DHT22;8724;51.272;6.554;2023-09-19T09:28:26;19.20;99.90
4701;DHT22;8724;51.272;6.554;2023-09-19T09:30:55;19.20;99.90
4701;DHT22;8724;51.272;6.554;2023-09-19T09:33:25;19.20;99.90
4701;DHT22;8724;51.272;6.554;2023-09-19T09:35:57;19.20;99.90
4701;DHT22;8724;51.272;6.554;2023-09-19T09:38:28;19.20;99.90
4701;DHT22;8724;51.272;6.554;2023-09-19T09:41:00;19.20;99.90
4701;DHT22;8724;51.272;6.554;2023-09-19T09:43:34;19.30;99.90
4701;DHT22;8724;51.272;6.554;2023-09-19T09:46:10;19.30;99.90
4701;DHT22;8724;51.272;6.554;2023-09-19T09:49:01;19.30;99.90
4701;DHT22;8724;51.272;6.554;2023-09-19T09:52:01;19.30;99.90
4701;DHT22;8724;51.272;6.554;2023-09-19T09:54:37;19.30;99.90
4701;DHT22;8724;51.272;6.554;2023-09-19T09:57:10;19.30;99.90
4701;DHT22;8724;51.272;6.554;2023-09-19T09:59:48;19.30;99.90
4701;DHT22;8724;51.272;6.554;2023-09-19T10:02:26;19.30;99.90
4701;DHT22;8724;51.272;6.554;2023-09-19T10:05:10;19.40;99.90
4701;DHT22;8724;51.272;6.554;2023-09-19T10:07:48;19.40;99.90
4701;DHT22;8724;51.272;6.554;2023-09-19T10:10:30;19.40;99.90
4701;DHT22;8724;51.272;6.554;2023-09-19T10:13:07;19.40;99.90
4701;DHT22;8724;51.272;6.554;2023-09-19T10:15:39;19.40;99.90
4701;DHT22;8724;51.272;6.554;2023-09-19T10:18:14;19.40;99.90
4701;DHT22;8724;51.272;6.554;2023-09-19T10:20:45;19.40;99.90
4701;DHT22;8724;51.272;6.554;2023-09-19T10:23:17;19.40;99.90
4701;DHT22;8724;51.272;6.554;2023-09-19T10:25:49;19.40;99.90
4701;DHT22;8724;51.272;6.554;2023-09-19T10:28:21;19.40;99.90
4701;DHT22;8724;51.272;6.554;2023-09-19T10:30:51;19.40;99.90
4701;DHT22;8724;51.272;6.554;2023-09-19T10:33:21;19.40;99.90
4701;DHT22;8724;51.272;6.554;2023-09-19T10:35:53;19.50;99.90
4701;DHT22;8724;51.272;6.554;2023-09-19T10:38:24;19.50;99.90
4701;DHT22;8724;51.272;6.554;2023-09-19T10:40:54;19.50;99.90
4701;DHT22;8724;51.272;6.554;2023-09-19T10:43:26;19.50;99.90
4701;DHT22;8724;51.272;6.554;2023-09-19T10:46:02;19.80;99.90
4701;DHT22;8724;51.272;6.554;2023-09-19T10:48:33;19.50;99.90
4701;DHT22;8724;51.272;6.554;2023-09-19T10:51:05;19.50;99.90
4701;DHT22;8724;51.272;6.554;2023-09-19T10:53:43;19.50;99.90
4701;DHT22;8724;51.272;6.554;2023-09-19T10:56:18;19.50;99.90
4701;DHT22;8724;51.272;6.554;2023-09-19T10:58:48;19.60;99.90
4701;DHT22;8724;51.272;6.554;2023-09-19T11:01:18;19.60;99.90
4701;DHT22;8724;51.272;6.554;2023-09-19T11:03:48;19.60;99.90
4701;DHT22;8724;51.272;6.554;2023-09-19T11:06:39;19.60;99.90
4701;DHT22;8724;51.272;6.554;2023-09-19T11:09:08;19.60;99.90
4701;DHT22;8724;51.272;6.554;2023-09-19T11:11:53;19.60;99.90
4701;DHT22;8724;51.272;6.554;2023-09-19T11:14:44;19.60;99.90
4701;DHT22;8724;51.272;6.554;2023-09-19T11:17:40;19.70;99.90
4701;DHT22;8724;51.272;6.554;2023-09-19T11:20:22;19.70;99.90
4701;DHT22;8724;51.272;6.554;2023-09-19T11:23:21;19.70;99.90
4701;DHT22;8724;51.272;6.554;2023-09-19T11:25:57;19.70;99.90
4701;DHT22;8724;51.272;6.554;2023-09-19T11:28:33;19.70;99.90
4701;DHT22;8724;51.272;6.554;2023-09-19T11:34:42;19.70;99.90
4701;DHT22;8724;51.272;6.554;2023-09-19T11:40:37;19.70;99.90
4701;DHT22;8724;51.272;6.554;2023-09-19T11:43:30;19.80;99.90
4701;DHT22;8724;51.272;6.554;2023-09-19T11:46:06;19.80;99.90
4701;DHT22;8724;51.272;6.554;2023-09-19T11:48:35;19.90;99.90
4701;DHT22;8724;51.272;6.554;2023-09-19T11:51:16;19.80;99.90
4701;DHT22;8724;51.272;6.554;2023-09-19T11:53:49;19.80;99.90
4701;DHT22;8724;51.272;6.554;2023-09-19T11:56:19;19.80;99.90
4701;DHT22;8724;51.272;6.554;2023-09-19T11:58:49;19.90;99.90
4701;DHT22;8724;51.272;6.554;2023-09-19T12:01:24;19.90;99.90
4701;DHT22;8724;51.272;6.554;2023-09-19T12:03:56;19.90;99.90
4701;DHT22;8724;51.272;6.554;2023-09-19T12:06:25;19.90;99.90
4701;DHT22;8724;51.272;6.554;2023-09-19T12:08:54;19.60;99.90
4701;DHT22;8724;51.272;6.554;2023-09-19T12:11:26;20.00;99.90
4701;DHT22;8724;51.272;6.554;2023-09-19T12:13:55;19.90;99.90
4701;DHT22;8724;51.272;6.554;2023-09-19T12:16:28;20.00;99.90
4701;DHT22;8724;51.272;6.554;2023-09-19T12:18:57;20.00;99.90
4701;DHT22;8724;51.272;6.554;2023-09-19T12:21:29;20.00;99.90
4701;DHT22;8724;51.272;6.554;2023-09-19T12:24:06;20.10;99.90
4701;DHT22;8724;51.272;6.554;2023-09-19T12:26:40;19.90;99.90
4701;DHT22;8724;51.272;6.554;2023-09-19T12:29:16;20.10;99.90
4701;DHT22;8724;51.272;6.554;2023-09-19T12:31:51;20.20;99.90
4701;DHT22;8724;51.272;6.554;2023-09-19T12:34:23;20.20;99.90
4701;DHT22;8724;51.272;6.554;2023-09-19T12:37:08;20.20;99.90
4701;DHT22;8724;51.272;6.554;2023-09-19T12:39:45;20.30;99.90
4701;DHT22;8724;51.272;6.554;2023-09-19T12:42:17;20.30;99.90
4701;DHT22;8724;51.272;6.554;2023-09-19T12:44:46;20.30;99.90
4701;DHT22;8724;51.272;6.554;2023-09-19T12:47:17;20.30;99.90
4701;DHT22;8724;51.272;6.554;2023-09-19T12:50:06;20.30;99.90
4701;DHT22;8724;51.272;6.554;2023-09-19T12:52:36;20.40;99.90
4701;DHT22;8724;51.272;6.554;2023-09-19T12:55:05;20.50;99.90
4701;DHT22;8724;51.272;6.554;2023-09-19T12:57:34;20.50;99.90
4701;DHT22;8724;51.272;6.554;2023-09-19T13:00:04;20.50;99.90
4701;DHT22;8724;51.272;6.554;2023-09-19T13:02:34;20.60;99.90
4701;DHT22;8724;51.272;6.554;2023-09-19T13:05:03;20.60;99.90
4701;DHT22;8724;51.272;6.554;2023-09-19T13:07:40;20.60;99.90
4701;DHT22;8724;51.272;6.554;2023-09-19T13:10:12;20.60;99.90
4701;DHT22;8724;51.272;6.554;2023-09-19T13:12:43;20.70;99.90
4701;DHT22;8724;51.272;6.554;2023-09-19T13:15:15;20.70;99.90
4701;DHT22;8724;51.272;6.554;2023-09-19T13:17:49;20.70;99.90
4701;DHT22;8724;51.272;6.554;2023-09-19T13:20:21;20.70;99.90
4701;DHT22;8724;51.272;6.554;2023-09-19T13:22:55;20.80;99.90
4701;DHT22;8724;51.272;6.554;2023-09-19T13:25:27;20.80;99.90
4701;DHT22;8724;51.272;6.554;2023-09-19T13:27:57;20.80;99.90
4701;DHT22;8724;51.272;6.554;2023-09-19T13:30:27;20.80;99.90
4701;DHT22;8724;51.272;6.554;2023-09-19T13:33:10;21.00;99.90
4701;DHT22;8724;51.272;6.554;2023-09-19T13:35:40;20.80;99.90
4701;DHT22;8724;51.272;6.554;2023-09-19T13:38:08;20.80;99.90
4701;DHT22;8724;51.272;6.554;2023-09-19T13:40:39;20.80;99.90
4701;DHT22;8724;51.272;6.554;2023-09-19T13:43:09;20.80;99.90
4701;DHT22;8724;51.272;6.554;2023-09-19T13:45:37;20.80;99.90
4701;DHT22;8724;51.272;6.554;2023-09-19T13:48:10;20.70;99.90
4701;DHT22;8724;51.272;6.554;2023-09-19T13:50:39;20.70;99.90
4701;DHT22;8724;51.272;6.554;2023-09-19T13:53:09;20.70;99.90
4701;DHT22;8724;51.272;6.554;2023-09-19T13:55:37;20.70;99.90
4701;DHT22;8724;51.272;6.554;2023-09-19T13:58:05;20.70;99.90
4701;DHT22;8724;51.272;6.554;2023-09-19T14:00:34;20.70;99.90
4701;DHT22;8724;51.272;6.554;2023-09-19T14:03:03;20.70;99.90
4701;DHT22;8724;51.272;6.554;2023-09-19T14:05:33;20.70;99.90
4701;DHT22;8724;51.272;6.554;2023-09-19T14:08:01;20.70;99.90
4701;DHT22;8724;51.272;6.554;2023-09-19T14:10:30;20.70;99.90
4701;DHT22;8724;51.272;6.554;2023-09-19T14:12:59;20.70;99.90
4701;DHT22;8724;51.272;6.554;2023-09-19T14:15:27;20.70;99.90
4701;DHT22;8724;51.272;6.554;2023-09-19T14:17:57;20.70;99.90
4701;DHT22;8724;51.272;6.554;2023-09-19T14:20:28;20.60;99.90
4701;DHT22;8724;51.272;6.554;2023-09-19T14:22:57;20.60;99.90
4701;DHT22;8724;51.272;6.554;2023-09-19T14:25:27;20.70;99.90
4701;DHT22;8724;51.272;6.554;2023-09-19T14:27:56;20.70;99.90
4701;DHT22;8724;51.272;6.554;2023-09-19T14:30:25;20.70;99.90
4701;DHT22;8724;51.272;6.554;2023-09-19T14:32:53;20.70;99.90
4701;DHT22;8724;51.272;6.554;2023-09-19T14:35:22;20.60;99.90
4701;DHT22;8724;51.272;6.554;2023-09-19T14:37:50;20.70;99.90
4701;DHT22;8724;51.272;6.554;2023-09-19T14:40:20;20.60;99.90
4701;DHT22;8724;51.272;6.554;2023-09-19T14:42:49;20.70;99.90
4701;DHT22;8724;51.272;6.554;2023-09-19T14:45:19;20.60;99.90
4701;DHT22;8724;51.272;6.554;2023-09-19T14:47:47;20.70;99.90
4701;DHT22;8724;51.272;6.554;2023-09-19T14:50:15;20.70;99.90
4701;DHT22;8724;51.272;6.554;2023-09-19T14:52:44;20.70;99.90
4701;DHT22;8724;51.272;6.554;2023-09-19T14:55:12;20.70;99.90
4701;DHT22;8724;51.272;6.554;2023-09-19T14:57:43;20.70;99.90
4701;DHT22;8724;51.272;6.554;2023-09-19T15:00:13;20.60;99.90
4701;DHT22;8724;51.272;6.554;2023-09-19T15:02:43;20.60;99.90
4701;DHT22;8724;51.272;6.554;2023-09-19T15:05:13;20.70;99.90
4701;DHT22;8724;51.272;6.554;2023-09-19T15:07:45;20.60;99.90
4701;DHT22;8724;51.272;6.554;2023-09-19T15:10:14;20.60;99.90
4701;DHT22;8724;51.272;6.554;2023-09-19T15:12:44;20.60;99.90
4701;DHT22;8724;51.272;6.554;2023-09-19T15:15:12;20.60;99.90
4701;DHT22;8724;51.272;6.554;2023-09-19T15:17:40;20.60;99.90
4701;DHT22;8724;51.272;6.554;2023-09-19T15:20:09;20.60;99.90
4701;DHT22;8724;51.272;6.554;2023-09-19T15:22:41;20.60;99.90
4701;DHT22;8724;51.272;6.554;2023-09-19T15:25:09;20.60;99.90
4701;DHT22;8724;51.272;6.554;2023-09-19T15:27:37;20.60;99.90
4701;DHT22;8724;51.272;6.554;2023-09-19T15:30:09;20.60;99.90
4701;DHT22;8724;51.272;6.554;2023-09-19T15:32:37;20.60;99.90
4701;DHT22;8724;51.272;6.554;2023-09-19T15:35:07;20.60;99.90
4701;DHT22;8724;51.272;6.554;2023-09-19T15:37:36;20.60;99.90
4701;DHT22;8724;51.272;6.554;2023-09-19T15:40:06;20.60;99.90
4701;DHT22;8724;51.272;6.554;2023-09-19T15:42:37;20.60;99.90
4701;DHT22;8724;51.272;6.554;2023-09-19T15:45:08;20.90;99.90
4701;DHT22;8724;51.272;6.554;2023-09-19T15:47:37;20.60;99.90
4701;DHT22;8724;51.272;6.554;2023-09-19T15:50:06;20.60;99.90
4701;DHT22;8724;51.272;6.554;2023-09-19T15:52:36;20.60;99.90
4701;DHT22;8724;51.272;6.554;2023-09-19T15:55:05;20.60;99.90
4701;DHT22;8724;51.272;6.554;2023-09-19T15:57:34;20.60;99.90
4701;DHT22;8724;51.272;6.554;2023-09-19T16:00:02;20.70;99.90
4701;DHT22;8724;51.272;6.554;2023-09-19T16:02:38;20.70;99.90
4701;DHT22;8724;51.272;6.554;2023-09-19T16:05:07;20.70;99.90
4701;DHT22;8724;51.272;6.554;2023-09-19T16:07:36;20.70;99.90
4701;DHT22;8724;51.272;6.554;2023-09-19T16:10:06;20.80;99.90
4701;DHT22;8724;51.272;6.554;2023-09-19T16:12:35;20.80;99.90
4701;DHT22;8724;51.272;6.554;2023-09-19T16:15:05;20.70;99.90
4701;DHT22;8724;51.272;6.554;2023-09-19T16:17:39;20.80;99.90
4701;DHT22;8724;51.272;6.554;2023-09-19T16:20:07;20.80;99.90
4701;DHT22;8724;51.272;6.554;2023-09-19T16:22:39;20.90;99.90
4701;DHT22;8724;51.272;6.554;2023-09-19T16:25:08;20.90;99.90
4701;DHT22;8724;51.272;6.554;2023-09-19T16:27:38;20.90;99.90
4701;DHT22;8724;51.272;6.554;2023-09-19T16:30:08;20.90;99.90
4701;DHT22;8724;51.272;6.554;2023-09-19T16:33:10;20.90;99.90
4701;DHT22;8724;51.272;6.554;2023-09-19T16:35:38;20.90;99.90